Time;durP1;ratioP1;P1;durP2;ratioP2;P2;SDS_P1;SDS_P2;PMS_P1;PMS_P2;Temp;Humidity;BMP_temperature;BMP_pressure;BME280_temperature;BME280_humidity;BME280_pressure;Samples;Min_cycle;Max_cycle;Signal;HPM_P1;HPM_P2
2022/03/04 00:01:30;;;;;;;13.20;6.68;;;;;;;;;;5108066;28;20086;-85
2022/03/04 00:03:56;;;;;;;13.00;6.15;;;;;;;;;;5103489;28;20072;-85
2022/03/04 00:06:23;;;;;;;16.80;6.15;;;;;;;;;;5105796;28;20094;-85
2022/03/04 00:08:50;;;;;;;13.07;6.75;;;;;;;;;;5103322;28;20390;-85
2022/03/04 00:11:17;;;;;;;14.10;6.28;;;;;;;;;;5102349;28;20051;-85
2022/03/04 00:13:44;;;;;;;19.15;7.80;;;;;;;;;;5106586;28;20055;-85
2022/03/04 00:16:10;;;;;;;15.60;6.95;;;;;;;;;;5104822;28;20043;-85
2022/03/04 00:18:38;;;;;;;16.50;7.50;;;;;;;;;;5109248;28;20509;-85
2022/03/04 00:21:04;;;;;;;16.08;7.05;;;;;;;;;;5108039;28;20048;-85
2022/03/04 00:23:31;;;;;;;18.33;8.20;;;;;;;;;;5104223;28;20076;-85
2022/03/04 00:25:58;;;;;;;16.08;6.93;;;;;;;;;;5108167;28;20583;-85
2022/03/04 00:28:24;;;;;;;14.77;8.00;;;;;;;;;;5098651;28;20047;-85
2022/03/04 00:30:51;;;;;;;15.27;6.95;;;;;;;;;;5103071;28;20047;-85
2022/03/04 00:33:18;;;;;;;17.70;7.53;;;;;;;;;;5105005;28;20129;-84
2022/03/04 00:35:46;;;;;;;12.82;6.97;;;;;;;;;;5101270;28;20076;-85
2022/03/04 00:38:12;;;;;;;16.58;8.10;;;;;;;;;;5105261;28;20075;-85
2022/03/04 00:40:39;;;;;;;17.63;7.95;;;;;;;;;;5102964;27;20143;-84
2022/03/04 00:43:05;;;;;;;14.63;7.40;;;;;;;;;;5105773;28;20055;-84
2022/03/04 00:45:32;;;;;;;17.10;7.85;;;;;;;;;;5102711;28;20238;-85
2022/03/04 00:47:59;;;;;;;18.83;7.53;;;;;;;;;;5105099;28;20052;-85
2022/03/04 00:50:32;;;;;;;18.98;8.18;;;;;;;;;;5105122;28;20410;-85
2022/03/04 00:53:01;;;;;;;15.50;7.65;;;;;;;;;;5108917;28;20063;-84
2022/03/04 00:55:28;;;;;;;15.93;7.75;;;;;;;;;;5109182;28;20577;-85
2022/03/04 00:57:54;;;;;;;15.90;7.13;;;;;;;;;;5105602;28;20484;-84
2022/03/04 01:00:21;;;;;;;17.98;8.02;;;;;;;;;;5107863;28;20108;-85
2022/03/04 01:02:48;;;;;;;17.70;7.40;;;;;;;;;;5108245;27;20071;-84
2022/03/04 01:05:14;;;;;;;17.10;8.02;;;;;;;;;;5109162;28;20127;-85
2022/03/04 01:07:41;;;;;;;17.63;7.43;;;;;;;;;;5106069;27;20052;-84
2022/03/04 01:10:09;;;;;;;18.73;7.80;;;;;;;;;;5108332;27;20126;-84
2022/03/04 01:12:36;;;;;;;19.38;7.53;;;;;;;;;;5099036;28;20075;-84
2022/03/04 01:15:03;;;;;;;19.35;8.32;;;;;;;;;;5109493;28;20417;-85
2022/03/04 01:17:30;;;;;;;16.35;8.30;;;;;;;;;;5108229;28;20615;-84
2022/03/04 01:19:56;;;;;;;15.43;8.23;;;;;;;;;;5111076;28;20079;-84
2022/03/04 01:22:23;;;;;;;14.45;7.38;;;;;;;;;;5104554;28;20509;-84
2022/03/04 01:24:50;;;;;;;22.27;8.38;;;;;;;;;;5102912;27;20458;-84
2022/03/04 01:27:18;;;;;;;14.60;7.10;;;;;;;;;;5109688;28;20055;-84
2022/03/04 01:29:44;;;;;;;16.50;7.72;;;;;;;;;;5101926;28;20055;-84
2022/03/04 01:32:11;;;;;;;15.55;7.78;;;;;;;;;;5101547;28;20071;-84
2022/03/04 01:34:38;;;;;;;17.92;7.85;;;;;;;;;;5102543;28;20524;-84
2022/03/04 01:37:05;;;;;;;18.92;8.73;;;;;;;;;;5103801;28;20485;-84
2022/03/04 01:39:32;;;;;;;18.10;8.55;;;;;;;;;;5108073;27;20071;-85
2022/03/04 01:41:59;;;;;;;16.33;8.68;;;;;;;;;;5106727;28;20063;-84
2022/03/04 01:44:27;;;;;;;16.70;8.13;;;;;;;;;;5106961;28;20113;-85
2022/03/04 01:46:53;;;;;;;18.50;8.10;;;;;;;;;;5106888;28;20079;-85
2022/03/04 01:49:20;;;;;;;16.70;7.72;;;;;;;;;;5109178;28;20040;-85
2022/03/04 01:51:47;;;;;;;17.38;8.32;;;;;;;;;;5108040;28;20054;-85
2022/03/04 01:54:14;;;;;;;17.73;7.40;;;;;;;;;;5109749;28;20617;-84
2022/03/04 01:56:41;;;;;;;16.80;6.95;;;;;;;;;;5113934;27;20047;-85
2022/03/04 01:59:07;;;;;;;17.35;8.52;;;;;;;;;;5107750;28;20105;-84
2022/03/04 02:01:37;;;;;;;15.23;6.53;;;;;;;;;;5110445;28;20146;-84
2022/03/04 02:04:03;;;;;;;19.88;8.50;;;;;;;;;;5103971;28;20495;-84
2022/03/04 02:06:30;;;;;;;14.68;7.00;;;;;;;;;;5104802;28;20100;-84
2022/03/04 02:08:56;;;;;;;13.63;7.13;;;;;;;;;;5104912;28;20044;-84
2022/03/04 02:11:23;;;;;;;16.27;8.25;;;;;;;;;;5106128;27;20135;-84
2022/03/04 02:13:49;;;;;;;16.50;7.80;;;;;;;;;;5109369;28;20457;-84
2022/03/04 02:16:20;;;;;;;15.10;7.78;;;;;;;;;;5109213;27;20549;-85
2022/03/04 02:18:48;;;;;;;18.35;8.05;;;;;;;;;;5102298;28;20062;-84
2022/03/04 02:21:15;;;;;;;16.48;7.63;;;;;;;;;;5103530;28;20188;-84
2022/03/04 02:23:43;;;;;;;19.85;9.38;;;;;;;;;;5107487;28;20047;-84
2022/03/04 02:26:10;;;;;;;19.23;8.35;;;;;;;;;;5109263;27;20097;-84
2022/03/04 02:28:36;;;;;;;19.50;8.60;;;;;;;;;;5113721;27;20076;-84
2022/03/04 02:31:03;;;;;;;23.48;7.78;;;;;;;;;;5105857;28;20055;-84
2022/03/04 02:33:29;;;;;;;20.73;8.57;;;;;;;;;;5106073;28;20072;-84
2022/03/04 02:35:56;;;;;;;19.27;8.20;;;;;;;;;;5107918;28;20078;-84
2022/03/04 02:38:23;;;;;;;23.17;9.35;;;;;;;;;;5101020;28;20078;-84
2022/03/04 02:40:51;;;;;;;16.73;8.25;;;;;;;;;;5103107;27;20070;-84
2022/03/04 02:43:24;;;;;;;16.85;7.97;;;;;;;;;;5105712;28;20698;-84
2022/03/04 02:45:51;;;;;;;19.92;8.40;;;;;;;;;;5104544;28;20044;-84
2022/03/04 02:48:18;;;;;;;20.45;8.23;;;;;;;;;;5104375;28;20047;-84
2022/03/04 02:50:44;;;;;;;14.85;7.30;;;;;;;;;;5112470;27;20109;-84
2022/03/04 02:53:11;;;;;;;18.13;8.77;;;;;;;;;;5104496;27;20563;-84
2022/03/04 02:55:38;;;;;;;18.25;7.80;;;;;;;;;;5103006;27;20090;-84
2022/03/04 02:58:06;;;;;;;19.00;8.05;;;;;;;;;;5100417;27;20080;-84
2022/03/04 03:00:32;;;;;;;19.00;8.80;;;;;;;;;;5108016;28;20476;-84
2022/03/04 03:02:59;;;;;;;17.73;8.15;;;;;;;;;;5104249;28;20075;-84
2022/03/04 03:05:26;;;;;;;15.93;8.52;;;;;;;;;;5103255;27;20142;-84
2022/03/04 03:07:52;;;;;;;21.25;8.52;;;;;;;;;;5103987;27;20082;-84
2022/03/04 03:10:19;;;;;;;22.13;9.23;;;;;;;;;;5103292;27;20437;-84
2022/03/04 03:12:45;;;;;;;18.75;8.95;;;;;;;;;;5100154;28;20055;-84
2022/03/04 03:15:14;;;;;;;21.10;8.73;;;;;;;;;;5115146;27;20078;-84
2022/03/04 03:17:41;;;;;;;18.67;8.95;;;;;;;;;;5101848;28;20138;-85
2022/03/04 03:20:09;;;;;;;22.13;8.07;;;;;;;;;;5101103;28;20090;-85
2022/03/04 03:22:36;;;;;;;19.13;8.65;;;;;;;;;;5106695;27;20047;-85
2022/03/04 03:25:04;;;;;;;17.75;8.65;;;;;;;;;;5104291;27;20079;-84
2022/03/04 03:27:30;;;;;;;19.85;9.38;;;;;;;;;;5107785;27;20055;-85
2022/03/04 03:29:57;;;;;;;16.67;8.15;;;;;;;;;;5114373;27;20147;-85
2022/03/04 03:32:25;;;;;;;20.98;10.05;;;;;;;;;;5118815;27;20096;-85
2022/03/04 03:34:52;;;;;;;22.30;8.55;;;;;;;;;;5098921;28;20072;-85
2022/03/04 03:37:19;;;;;;;17.33;8.70;;;;;;;;;;5100135;28;20682;-85
2022/03/04 03:39:45;;;;;;;19.90;8.88;;;;;;;;;;5098428;28;20417;-84
2022/03/04 03:42:20;;;;;;;15.25;8.32;;;;;;;;;;5113104;27;20051;-84
2022/03/04 03:44:46;;;;;;;23.02;9.50;;;;;;;;;;5101068;28;20537;-84
2022/03/04 03:47:13;;;;;;;19.35;9.43;;;;;;;;;;5101341;27;20071;-84
2022/03/04 03:49:54;;;;;;;18.48;8.25;;;;;;;;;;5108105;27;20494;-85
2022/03/04 03:52:20;;;;;;;16.85;9.13;;;;;;;;;;5108189;28;20097;-84
2022/03/04 03:54:47;;;;;;;15.63;8.10;;;;;;;;;;5106802;27;20043;-84
2022/03/04 03:57:13;;;;;;;16.52;8.60;;;;;;;;;;5101499;28;20113;-84
2022/03/04 03:59:40;;;;;;;19.60;10.18;;;;;;;;;;5097999;28;20623;-84
2022/03/04 04:02:07;;;;;;;16.90;8.35;;;;;;;;;;5106267;27;20162;-84
2022/03/04 04:04:34;;;;;;;18.77;8.95;;;;;;;;;;5096224;28;20048;-84
2022/03/04 04:07:06;;;;;;;23.35;9.27;;;;;;;;;;5103487;28;20048;-84
2022/03/04 04:09:33;;;;;;;19.08;9.15;;;;;;;;;;5105856;28;20048;-84
2022/03/04 04:11:59;;;;;;;18.10;8.88;;;;;;;;;;5104937;28;20104;-84
2022/03/04 04:14:27;;;;;;;17.85;9.15;;;;;;;;;;5101029;28;20086;-84
2022/03/04 04:16:53;;;;;;;18.08;8.63;;;;;;;;;;5107295;28;20044;-84
2022/03/04 04:19:20;;;;;;;17.00;8.45;;;;;;;;;;5108430;28;20044;-84
2022/03/04 04:21:47;;;;;;;19.50;9.82;;;;;;;;;;5103916;28;20081;-84
2022/03/04 04:24:15;;;;;;;18.33;9.05;;;;;;;;;;5104355;28;20047;-84
2022/03/04 04:26:41;;;;;;;22.08;10.75;;;;;;;;;;5104010;28;20074;-84
2022/03/04 04:29:08;;;;;;;17.33;8.48;;;;;;;;;;5104552;28;20044;-84
2022/03/04 04:31:35;;;;;;;21.08;10.43;;;;;;;;;;5103265;28;20094;-84
2022/03/04 04:34:02;;;;;;;17.33;9.07;;;;;;;;;;5098901;28;20127;-84
2022/03/04 04:36:30;;;;;;;24.45;10.23;;;;;;;;;;5097682;28;20155;-84
2022/03/04 04:38:56;;;;;;;18.58;9.13;;;;;;;;;;5102049;28;20735;-84
2022/03/04 04:41:25;;;;;;;21.20;9.85;;;;;;;;;;5107060;28;20184;-84
2022/03/04 04:43:52;;;;;;;19.95;9.30;;;;;;;;;;5105481;28;20079;-84
2022/03/04 04:46:19;;;;;;;19.63;10.10;;;;;;;;;;5100967;28;20075;-84
2022/03/04 04:48:45;;;;;;;20.70;9.63;;;;;;;;;;5100543;28;20485;-84
2022/03/04 04:51:12;;;;;;;22.15;9.30;;;;;;;;;;5102838;28;20048;-84
2022/03/04 04:53:39;;;;;;;20.52;8.85;;;;;;;;;;5096324;28;20121;-84
2022/03/04 04:56:06;;;;;;;19.63;10.07;;;;;;;;;;5110510;28;20154;-84
2022/03/04 04:58:34;;;;;;;22.60;9.38;;;;;;;;;;5102572;28;20071;-84
2022/03/04 05:01:00;;;;;;;22.73;9.68;;;;;;;;;;5105918;28;20146;-84
2022/03/04 05:03:30;;;;;;;22.20;9.75;;;;;;;;;;5098496;28;20073;-84
2022/03/04 05:05:57;;;;;;;21.15;9.77;;;;;;;;;;5096127;28;20039;-84
2022/03/04 05:08:26;;;;;;;22.45;11.07;;;;;;;;;;5108338;28;20086;-84
2022/03/04 05:10:53;;;;;;;20.08;9.85;;;;;;;;;;5106053;28;20070;-84
2022/03/04 05:13:20;;;;;;;17.73;9.20;;;;;;;;;;5105035;28;20078;-84
2022/03/04 05:15:48;;;;;;;16.38;9.55;;;;;;;;;;5102087;28;20083;-84
2022/03/04 05:18:14;;;;;;;22.80;9.68;;;;;;;;;;5104532;28;20043;-84
2022/03/04 05:20:41;;;;;;;20.45;9.30;;;;;;;;;;5099731;28;20047;-84
2022/03/04 05:23:08;;;;;;;22.98;10.35;;;;;;;;;;5098931;28;20056;-84
2022/03/04 05:25:34;;;;;;;21.45;9.55;;;;;;;;;;5104920;28;20052;-84
2022/03/04 05:28:01;;;;;;;16.15;8.52;;;;;;;;;;5107568;28;20101;-84
2022/03/04 05:30:27;;;;;;;19.38;9.35;;;;;;;;;;5102500;28;20087;-84
2022/03/04 05:32:55;;;;;;;25.58;10.18;;;;;;;;;;5107576;28;20047;-84
2022/03/04 05:35:22;;;;;;;24.00;11.57;;;;;;;;;;5111330;28;20048;-84
2022/03/04 05:37:55;;;;;;;25.27;10.38;;;;;;;;;;5105985;28;20136;-84
2022/03/04 05:40:22;;;;;;;23.38;10.77;;;;;;;;;;5112485;27;20127;-84
2022/03/04 05:42:51;;;;;;;23.38;9.38;;;;;;;;;;5106301;28;20051;-84
2022/03/04 05:45:18;;;;;;;28.80;10.18;;;;;;;;;;5108870;28;20076;-84
2022/03/04 05:47:44;;;;;;;21.35;10.98;;;;;;;;;;5109112;28;20491;-84
2022/03/04 05:50:13;;;;;;;25.27;11.23;;;;;;;;;;5112357;28;20052;-84
2022/03/04 05:52:39;;;;;;;25.02;10.77;;;;;;;;;;5111520;28;20059;-84
2022/03/04 05:55:07;;;;;;;23.70;11.35;;;;;;;;;;5109727;27;20066;-84
2022/03/04 05:57:34;;;;;;;26.98;10.55;;;;;;;;;;5113011;28;21156;-84
2022/03/04 06:00:00;;;;;;;25.77;10.45;;;;;;;;;;5107362;27;20089;-84
2022/03/04 06:02:28;;;;;;;20.55;9.88;;;;;;;;;;5107047;28;20066;-84
2022/03/04 06:04:55;;;;;;;27.20;11.57;;;;;;;;;;5110140;28;20050;-84
2022/03/04 06:07:23;;;;;;;27.85;10.68;;;;;;;;;;5114227;28;20043;-84
2022/03/04 06:09:49;;;;;;;24.38;10.13;;;;;;;;;;5113141;27;20040;-85
2022/03/04 06:12:16;;;;;;;24.65;10.27;;;;;;;;;;5113247;27;20048;-84
2022/03/04 06:14:43;;;;;;;22.13;10.45;;;;;;;;;;5114284;28;20055;-84
2022/03/04 06:17:09;;;;;;;24.98;10.27;;;;;;;;;;5111591;28;20080;-84
2022/03/04 06:19:36;;;;;;;18.33;9.70;;;;;;;;;;5107228;28;20070;-85
2022/03/04 06:22:03;;;;;;;22.60;10.40;;;;;;;;;;5114711;28;20051;-85
2022/03/04 06:24:31;;;;;;;23.80;10.57;;;;;;;;;;5101967;28;20104;-85
2022/03/04 06:26:58;;;;;;;22.52;12.07;;;;;;;;;;5107833;28;20043;-85
2022/03/04 06:29:25;;;;;;;26.27;11.18;;;;;;;;;;5112103;28;20105;-85
2022/03/04 06:31:51;;;;;;;26.10;10.07;;;;;;;;;;5106840;27;20059;-85
2022/03/04 06:34:18;;;;;;;24.65;11.40;;;;;;;;;;5108735;28;20048;-85
2022/03/04 06:36:45;;;;;;;23.48;10.07;;;;;;;;;;5109756;28;20051;-85
2022/03/04 06:39:12;;;;;;;23.10;10.02;;;;;;;;;;5110268;28;20044;-85
2022/03/04 06:41:40;;;;;;;21.08;9.73;;;;;;;;;;5111509;28;20408;-85
2022/03/04 06:44:07;;;;;;;20.35;10.38;;;;;;;;;;5109927;28;20931;-85
2022/03/04 06:46:34;;;;;;;25.58;11.10;;;;;;;;;;5105074;28;20082;-86
2022/03/04 06:49:00;;;;;;;25.02;10.85;;;;;;;;;;5105056;28;20135;-85
2022/03/04 06:51:27;;;;;;;25.08;10.13;;;;;;;;;;5106888;28;20144;-85
2022/03/04 06:53:54;;;;;;;21.70;10.02;;;;;;;;;;5107845;28;20059;-85
2022/03/04 06:56:20;;;;;;;22.48;10.23;;;;;;;;;;5107682;27;20130;-86
2022/03/04 06:58:48;;;;;;;27.77;11.52;;;;;;;;;;5107759;28;20128;-86
2022/03/04 07:01:15;;;;;;;20.08;10.73;;;;;;;;;;5105031;28;20107;-85
2022/03/04 07:03:41;;;;;;;18.38;9.90;;;;;;;;;;5106054;27;20048;-85
2022/03/04 07:06:08;;;;;;;30.25;10.75;;;;;;;;;;5108624;28;20055;-85
2022/03/04 07:08:37;;;;;;;22.30;10.23;;;;;;;;;;5111244;28;20044;-85
2022/03/04 07:11:04;;;;;;;24.20;12.13;;;;;;;;;;5108967;27;21442;-85
2022/03/04 07:13:30;;;;;;;23.80;11.10;;;;;;;;;;5110630;28;20067;-85
2022/03/04 07:15:58;;;;;;;25.05;11.38;;;;;;;;;;5106091;28;20059;-86
2022/03/04 07:18:25;;;;;;;46.53;17.58;;;;;;;;;;5106431;27;20043;-85
2022/03/04 07:20:52;;;;;;;48.38;19.38;;;;;;;;;;5110293;28;20085;-85
2022/03/04 07:23:20;;;;;;;50.78;20.42;;;;;;;;;;5111968;28;20079;-86
2022/03/04 07:25:46;;;;;;;45.03;19.70;;;;;;;;;;5107297;28;20055;-86
2022/03/04 07:28:13;;;;;;;42.72;18.95;;;;;;;;;;5105303;28;20097;-86
2022/03/04 07:30:40;;;;;;;38.28;19.02;;;;;;;;;;5106521;28;20740;-86
2022/03/04 07:33:08;;;;;;;47.53;18.75;;;;;;;;;;5109248;28;20063;-86
2022/03/04 07:35:35;;;;;;;35.33;17.98;;;;;;;;;;5098513;28;20131;-86
2022/03/04 07:38:02;;;;;;;53.10;20.83;;;;;;;;;;5109887;28;20519;-85
2022/03/04 07:40:29;;;;;;;36.70;16.75;;;;;;;;;;5099723;27;20409;-85
2022/03/04 07:42:56;;;;;;;28.65;15.02;;;;;;;;;;5099955;28;20050;-86
2022/03/04 07:45:23;;;;;;;41.78;15.68;;;;;;;;;;5107718;28;20483;-85
2022/03/04 07:47:50;;;;;;;29.35;13.57;;;;;;;;;;5107622;28;20051;-86
2022/03/04 07:50:18;;;;;;;27.15;14.90;;;;;;;;;;5100029;28;20068;-86
2022/03/04 07:52:45;;;;;;;34.60;14.68;;;;;;;;;;5104393;28;20099;-86
2022/03/04 07:55:13;;;;;;;30.55;15.68;;;;;;;;;;5104454;28;20044;-86
2022/03/04 07:57:40;;;;;;;31.80;14.93;;;;;;;;;;5102313;28;20097;-86
2022/03/04 08:00:10;;;;;;;39.30;15.77;;;;;;;;;;5102675;28;20044;-86
2022/03/04 08:02:37;;;;;;;30.17;15.25;;;;;;;;;;5103719;28;20469;-86
2022/03/04 08:05:03;;;;;;;34.85;14.90;;;;;;;;;;5105736;28;20128;-86
2022/03/04 08:07:31;;;;;;;25.52;13.68;;;;;;;;;;5106812;28;20094;-86
2022/03/04 08:09:58;;;;;;;32.85;13.52;;;;;;;;;;5099117;28;20138;-86
2022/03/04 08:12:25;;;;;;;29.98;14.95;;;;;;;;;;5104502;28;20101;-86
2022/03/04 08:14:52;;;;;;;29.60;14.77;;;;;;;;;;5100095;28;20092;-86
2022/03/04 08:17:18;;;;;;;32.75;14.38;;;;;;;;;;5100848;28;20078;-86
2022/03/04 08:19:45;;;;;;;25.85;13.75;;;;;;;;;;5103052;28;20109;-86
2022/03/04 08:22:12;;;;;;;26.55;12.88;;;;;;;;;;5106044;28;20047;-86
2022/03/04 08:24:40;;;;;;;32.05;14.27;;;;;;;;;;5103810;28;20047;-86
2022/03/04 08:27:07;;;;;;;31.58;13.73;;;;;;;;;;5103510;28;20451;-86
2022/03/04 08:29:33;;;;;;;32.15;14.55;;;;;;;;;;5106941;28;20086;-86
2022/03/04 08:32:01;;;;;;;33.70;15.07;;;;;;;;;;5105243;28;20051;-86
2022/03/04 08:34:27;;;;;;;30.40;13.93;;;;;;;;;;5105432;28;20135;-86
2022/03/04 08:36:54;;;;;;;31.35;15.25;;;;;;;;;;5103397;28;20465;-86
2022/03/04 08:39:20;;;;;;;28.00;13.38;;;;;;;;;;5100242;28;20476;-86
2022/03/04 08:41:48;;;;;;;26.88;13.57;;;;;;;;;;5105936;28;20538;-86
2022/03/04 08:44:15;;;;;;;25.73;13.27;;;;;;;;;;5108798;28;20079;-85
2022/03/04 08:46:41;;;;;;;28.58;14.43;;;;;;;;;;5102022;28;20127;-86
2022/03/04 08:49:09;;;;;;;28.75;13.77;;;;;;;;;;5102900;28;20056;-86
2022/03/04 08:51:37;;;;;;;25.17;12.65;;;;;;;;;;5099470;28;20055;-86
2022/03/04 08:54:05;;;;;;;22.48;12.10;;;;;;;;;;5107803;28;20430;-86
2022/03/04 08:56:32;;;;;;;25.10;12.75;;;;;;;;;;5099863;28;20066;-86
2022/03/04 08:59:00;;;;;;;25.90;13.00;;;;;;;;;;5102333;28;20079;-86
2022/03/04 09:01:27;;;;;;;24.70;12.60;;;;;;;;;;5105176;27;20142;-86
2022/03/04 09:03:56;;;;;;;26.23;13.45;;;;;;;;;;5107744;28;20051;-86
2022/03/04 09:06:23;;;;;;;24.60;13.05;;;;;;;;;;5104978;28;20068;-86
2022/03/04 09:08:50;;;;;;;31.52;14.88;;;;;;;;;;5109841;28;20574;-86
2022/03/04 09:11:16;;;;;;;24.35;13.00;;;;;;;;;;5108641;28;20125;-86
2022/03/04 09:13:43;;;;;;;27.40;13.05;;;;;;;;;;5107207;28;20044;-87
2022/03/04 09:16:11;;;;;;;26.00;13.52;;;;;;;;;;5105028;28;20100;-87
2022/03/04 09:18:37;;;;;;;23.20;12.77;;;;;;;;;;5106613;28;20521;-87
2022/03/04 09:21:04;;;;;;;22.10;12.73;;;;;;;;;;5112411;27;20236;-87
2022/03/04 09:23:31;;;;;;;26.25;14.45;;;;;;;;;;5107878;28;20052;-86
2022/03/04 09:25:58;;;;;;;27.45;14.32;;;;;;;;;;5105801;28;20907;-86
2022/03/04 09:28:24;;;;;;;23.27;12.65;;;;;;;;;;5106571;28;20135;-86
2022/03/04 09:30:51;;;;;;;25.65;13.95;;;;;;;;;;5100021;28;20474;-87
2022/03/04 09:33:19;;;;;;;25.30;13.15;;;;;;;;;;5106165;27;20131;-87
2022/03/04 09:35:45;;;;;;;27.25;14.25;;;;;;;;;;5103581;28;20482;-87
2022/03/04 09:38:12;;;;;;;27.27;13.63;;;;;;;;;;5106719;28;20036;-87
2022/03/04 09:40:39;;;;;;;27.55;14.50;;;;;;;;;;5102382;28;20076;-87
2022/03/04 09:43:07;;;;;;;27.15;12.75;;;;;;;;;;5105842;28;20452;-87
2022/03/04 09:45:34;;;;;;;25.35;14.43;;;;;;;;;;5105344;28;20078;-87
2022/03/04 09:48:02;;;;;;;28.73;15.13;;;;;;;;;;5102970;28;20134;-87
2022/03/04 09:50:30;;;;;;;26.05;13.60;;;;;;;;;;5104982;28;20089;-84
2022/03/04 09:52:57;;;;;;;30.60;15.00;;;;;;;;;;5109487;28;20043;-84
2022/03/04 09:55:24;;;;;;;23.58;12.48;;;;;;;;;;5105234;27;20492;-84
2022/03/04 09:57:50;;;;;;;23.42;12.95;;;;;;;;;;5105823;28;20071;-86
2022/03/04 10:00:17;;;;;;;23.60;12.98;;;;;;;;;;5107962;28;20048;-84
2022/03/04 10:02:44;;;;;;;24.95;13.88;;;;;;;;;;5115974;28;20048;-84
2022/03/04 10:05:10;;;;;;;24.05;13.82;;;;;;;;;;5106433;28;20050;-84
2022/03/04 10:07:43;;;;;;;21.90;12.35;;;;;;;;;;5106189;28;20172;-84
2022/03/04 10:10:12;;;;;;;26.05;13.10;;;;;;;;;;5106779;28;20036;-84
2022/03/04 10:12:47;;;;;;;21.80;12.73;;;;;;;;;;5106668;28;20436;-85
2022/03/04 10:15:14;;;;;;;22.67;13.17;;;;;;;;;;5104805;28;20051;-84
2022/03/04 10:17:40;;;;;;;25.63;13.32;;;;;;;;;;5112050;28;20605;-84
2022/03/04 10:20:09;;;;;;;25.70;14.27;;;;;;;;;;5101467;28;20113;-85
2022/03/04 10:22:42;;;;;;;27.10;14.50;;;;;;;;;;5100798;28;20067;-85
2022/03/04 10:25:22;;;;;;;29.50;15.70;;;;;;;;;;5100967;27;20112;-87
2022/03/04 10:27:49;;;;;;;24.25;13.38;;;;;;;;;;5102101;28;20039;-84
2022/03/04 10:30:16;;;;;;;23.60;13.68;;;;;;;;;;5103883;28;20055;-85
2022/03/04 10:32:43;;;;;;;26.52;13.90;;;;;;;;;;5105593;28;20530;-84
2022/03/04 10:35:11;;;;;;;26.10;13.95;;;;;;;;;;5104557;28;20117;-87
2022/03/04 10:37:43;;;;;;;23.20;13.65;;;;;;;;;;5101331;27;20126;-87
2022/03/04 10:40:12;;;;;;;26.33;14.25;;;;;;;;;;5100033;27;20048;-85
2022/03/04 10:42:49;;;;;;;25.70;13.30;;;;;;;;;;5103707;27;20036;-84
2022/03/04 10:45:28;;;;;;;24.98;13.43;;;;;;;;;;5106344;27;20491;-85
2022/03/04 10:48:00;;;;;;;28.30;13.45;;;;;;;;;;5104539;28;20135;-87
2022/03/04 10:50:32;;;;;;;23.27;12.82;;;;;;;;;;5103912;27;20071;-85
2022/03/04 10:53:01;;;;;;;26.67;14.43;;;;;;;;;;5101543;28;20051;-85
2022/03/04 10:55:40;;;;;;;23.05;13.13;;;;;;;;;;5107231;28;20071;-85
2022/03/04 10:58:14;;;;;;;18.88;11.27;;;;;;;;;;5106601;27;20071;-85
2022/03/04 11:00:42;;;;;;;24.63;13.52;;;;;;;;;;5105265;28;20432;-84
2022/03/04 11:03:09;;;;;;;21.83;13.02;;;;;;;;;;5102803;28;20355;-85
2022/03/04 11:05:36;;;;;;;21.88;12.63;;;;;;;;;;5102608;28;20382;-85
2022/03/04 11:08:03;;;;;;;20.83;11.50;;;;;;;;;;5102131;28;20063;-85
2022/03/04 11:10:29;;;;;;;20.23;10.88;;;;;;;;;;5104764;27;20055;-85
2022/03/04 11:12:56;;;;;;;19.17;10.52;;;;;;;;;;5101776;28;20550;-86
2022/03/04 11:15:25;;;;;;;21.77;11.60;;;;;;;;;;5104450;28;20063;-86
2022/03/04 11:17:53;;;;;;;21.55;11.65;;;;;;;;;;5106842;28;20059;-86
2022/03/04 11:20:29;;;;;;;18.65;10.75;;;;;;;;;;5107861;28;20048;-86
2022/03/04 11:23:03;;;;;;;20.63;12.27;;;;;;;;;;5104369;28;20047;-87
2022/03/04 11:25:47;;;;;;;20.23;12.02;;;;;;;;;;5101966;27;20051;-86
2022/03/04 11:28:19;;;;;;;21.15;12.10;;;;;;;;;;5108795;28;20063;-86
2022/03/04 11:31:00;;;;;;;22.23;12.90;;;;;;;;;;5088401;28;20086;-86
2022/03/04 11:33:28;;;;;;;19.25;11.35;;;;;;;;;;5105514;27;20047;-87
2022/03/04 11:36:00;;;;;;;19.00;11.27;;;;;;;;;;5104100;27;20097;-86
2022/03/04 11:39:01;;;;;;;21.75;10.98;;;;;;;;;;5104508;28;20107;-86
2022/03/04 11:42:18;;;;;;;22.50;13.05;;;;;;;;;;5105380;28;20051;-86
2022/03/04 11:44:58;;;;;;;21.10;12.18;;;;;;;;;;5106787;27;20055;-86
2022/03/04 11:47:32;;;;;;;22.75;11.80;;;;;;;;;;5107126;28;20101;-84
2022/03/04 11:50:01;;;;;;;24.33;12.93;;;;;;;;;;5107418;28;20457;-84
2022/03/04 11:52:29;;;;;;;22.90;12.60;;;;;;;;;;5107111;28;20109;-84
2022/03/04 11:55:23;;;;;;;19.45;11.93;;;;;;;;;;5102944;28;20604;-84
2022/03/04 11:57:58;;;;;;;22.30;11.85;;;;;;;;;;5107117;28;20640;-84
2022/03/04 12:00:27;;;;;;;21.10;11.13;;;;;;;;;;5105793;28;20079;-84
2022/03/04 12:02:56;;;;;;;21.88;12.77;;;;;;;;;;5102250;28;20119;-84
2022/03/04 12:05:25;;;;;;;22.35;11.40;;;;;;;;;;5103080;28;20056;-85
2022/03/04 12:07:53;;;;;;;20.90;11.80;;;;;;;;;;5106876;28;20528;-84
2022/03/04 12:10:21;;;;;;;20.92;11.40;;;;;;;;;;5099576;28;20067;-85
2022/03/04 12:13:00;;;;;;;22.75;13.32;;;;;;;;;;5104108;28;20088;-85
2022/03/04 12:15:31;;;;;;;20.60;12.02;;;;;;;;;;5103074;28;20516;-85
2022/03/04 12:18:03;;;;;;;21.83;12.10;;;;;;;;;;5101834;28;20044;-85
2022/03/04 12:20:29;;;;;;;25.60;13.10;;;;;;;;;;5100280;28;20043;-85
2022/03/04 12:22:58;;;;;;;24.40;12.73;;;;;;;;;;5103838;28;20166;-85
2022/03/04 12:26:06;;;;;;;22.35;12.02;;;;;;;;;;5104543;28;20067;-85
2022/03/04 12:28:35;;;;;;;23.88;11.63;;;;;;;;;;5101641;28;20579;-85
2022/03/04 12:31:19;;;;;;;23.73;12.23;;;;;;;;;;5104337;28;20109;-86
2022/03/04 12:33:52;;;;;;;21.80;12.23;;;;;;;;;;5105947;28;20052;-85
2022/03/04 12:36:19;;;;;;;19.52;11.07;;;;;;;;;;5103956;28;20083;-86
2022/03/04 12:38:48;;;;;;;21.63;11.50;;;;;;;;;;5103493;28;20155;-86
2022/03/04 12:41:17;;;;;;;20.52;12.80;;;;;;;;;;5105145;27;20139;-85
2022/03/04 12:43:45;;;;;;;16.67;10.13;;;;;;;;;;5105179;28;20055;-85
2022/03/04 12:46:11;;;;;;;37.63;11.65;;;;;;;;;;5107377;28;20100;-85
2022/03/04 12:48:38;;;;;;;20.25;11.10;;;;;;;;;;5106066;28;20097;-86
2022/03/04 12:51:18;;;;;;;20.90;11.70;;;;;;;;;;5105038;28;20056;-85
2022/03/04 12:53:44;;;;;;;19.70;11.93;;;;;;;;;;5108549;28;20127;-85
2022/03/04 12:56:12;;;;;;;21.75;12.23;;;;;;;;;;5105225;28;20532;-85
2022/03/04 12:58:40;;;;;;;21.45;11.25;;;;;;;;;;5106876;27;20493;-87
2022/03/04 13:01:08;;;;;;;20.30;12.43;;;;;;;;;;5107115;27;20095;-87
2022/03/04 13:03:35;;;;;;;22.50;12.00;;;;;;;;;;5106567;27;20545;-87
2022/03/04 13:06:03;;;;;;;22.40;12.80;;;;;;;;;;5106779;27;20055;-87
2022/03/04 13:08:31;;;;;;;21.13;11.57;;;;;;;;;;5105575;27;20520;-87
2022/03/04 13:11:11;;;;;;;24.85;12.80;;;;;;;;;;5105082;27;20146;-87
2022/03/04 13:13:45;;;;;;;20.20;11.38;;;;;;;;;;5104441;28;20109;-86
2022/03/04 13:16:12;;;;;;;20.80;12.07;;;;;;;;;;5110019;27;20139;-88
2022/03/04 13:18:38;;;;;;;21.92;11.73;;;;;;;;;;5104878;27;20040;-87
2022/03/04 13:21:07;;;;;;;18.35;10.73;;;;;;;;;;5107101;28;20485;-87
2022/03/04 13:23:35;;;;;;;16.45;10.68;;;;;;;;;;5105811;27;20083;-85
2022/03/04 13:26:06;;;;;;;27.90;11.60;;;;;;;;;;5107844;27;20083;-85
2022/03/04 13:28:51;;;;;;;22.70;12.20;;;;;;;;;;5103946;28;20097;-85
2022/03/04 13:31:22;;;;;;;18.70;11.52;;;;;;;;;;5108348;27;20553;-85
2022/03/04 13:33:49;;;;;;;18.88;11.60;;;;;;;;;;5111331;27;20644;-84
2022/03/04 13:36:15;;;;;;;20.85;11.63;;;;;;;;;;5110556;28;20072;-84
2022/03/04 13:38:49;;;;;;;19.17;12.05;;;;;;;;;;5108270;27;20153;-84
2022/03/04 13:41:25;;;;;;;19.17;11.75;;;;;;;;;;5107767;28;20080;-84
2022/03/04 13:44:05;;;;;;;19.35;11.80;;;;;;;;;;5108903;28;20459;-84
2022/03/04 13:46:32;;;;;;;20.20;12.50;;;;;;;;;;5107322;28;20096;-84
2022/03/04 13:48:59;;;;;;;20.52;11.73;;;;;;;;;;5108812;28;20051;-84
2022/03/04 13:51:25;;;;;;;19.33;11.75;;;;;;;;;;5113409;28;20047;-84
2022/03/04 13:53:57;;;;;;;22.10;12.93;;;;;;;;;;5106922;28;20071;-84
2022/03/04 13:56:24;;;;;;;22.40;12.60;;;;;;;;;;5104245;27;20070;-84
2022/03/04 13:58:57;;;;;;;23.15;12.88;;;;;;;;;;5109526;28;20055;-84
2022/03/04 14:01:24;;;;;;;19.33;11.48;;;;;;;;;;5107305;27;20043;-85
2022/03/04 14:03:50;;;;;;;20.17;11.98;;;;;;;;;;5109736;27;20460;-86
2022/03/04 14:06:19;;;;;;;19.88;12.77;;;;;;;;;;5110250;28;20059;-86
2022/03/04 14:08:46;;;;;;;19.67;11.45;;;;;;;;;;5109692;28;20040;-86
2022/03/04 14:11:15;;;;;;;19.95;12.73;;;;;;;;;;5109680;28;20214;-86
2022/03/04 14:13:45;;;;;;;19.25;12.32;;;;;;;;;;5112931;27;20108;-86
2022/03/04 14:16:14;;;;;;;19.35;11.60;;;;;;;;;;5110595;28;20515;-83
2022/03/04 14:18:43;;;;;;;19.30;12.20;;;;;;;;;;5110160;28;20051;-84
2022/03/04 14:21:10;;;;;;;17.38;11.38;;;;;;;;;;5112738;28;20079;-84
2022/03/04 14:23:38;;;;;;;20.65;11.93;;;;;;;;;;5108811;28;20132;-84
2022/03/04 14:26:06;;;;;;;18.95;11.88;;;;;;;;;;5111719;28;20047;-83
2022/03/04 14:28:34;;;;;;;23.88;12.55;;;;;;;;;;5108476;28;20463;-84